Oshawa Airport
CYOO : now visible

Airfield :











YOU CAN JOIN US ON...

 
LOGIN :

Register | Disclaimer

   EN    FR    IT 

 









Legend :    VFR   Marginal VFR   IFR   Intensive IFR   Very Intensive IFR
Visi :
Ceiling :
>= 8 km
>= 3000ft
5 to 8 km
1000 to 3000 ft
1500m to 5 km
500 to 1000 ft
800 to 1500m
200 to 500 ft
< 800m
< 200 ft
Symbols :   Thunderstorms  Fog  Heavy snow  Heavy precipitations  Wind > 20 kt






- Airport Elevation : 459 ft
- IATA code : YOO


CYOO - Oshawa

CURRENT METAR :
  • 042000Z AUTO 24004KT 190V270 9SM VCTS BKN027 BKN037 BKN085 24/19 A2978 RMK LTNG DIST W SLP086 DENSITY ALT 1700FT

EXPIRED METARs :
  • 041952Z AUTO 21004KT 130V230 9SM VCTS BKN027 BKN110 BKN140 24/19 A2979 RMK LTNG DIST W SLP087 DENSITY ALT 1700FT
  • 041900Z AUTO 04004KT 350V090 9SM SCT027 BKN034 OVC060 24/18 A2980 RMK SLP092 DENSITY ALT 1700FT
  • 041838Z AUTO VRB02KT 7SM BKN025 BKN031 BKN190 25/19 A2981 RMK SLP095 DENSITY ALT 1800FT
  • 041814Z AUTO VRB03KT 9SM BKN023 BKN031 BKN130 24/19 A2982 RMK SLP098 DENSITY ALT 1600FT
  • 041807Z AUTO 00000KT 9SM SCT023 BKN031 BKN130 24/19 A2982 RMK SLP098 DENSITY ALT 1600FT
  • 041757Z AUTO 08003KT 340V150 9SM BKN023 BKN130 24/19 A2982 RMK SLP099 DENSITY ALT 1600FT
  • 041718Z AUTO VRB02KT 9SM SCT017 SCT022 BKN130 23/19 A2984 RMK SLP105 DENSITY ALT 1500FT
  • 041709Z AUTO VRB02KT 9SM BKN017 BKN036 BKN120 23/19 A2984 RMK SLP106 DENSITY ALT 1500FT

TAF AMD TAF CYOO
Valid from the 04 at 20:00 until the 05 at 08:00 UTC


041957Z 0420/0508 21005KT P6SM BKN030 BKN100
TEMPO 0420/0422 P6SM -SHRA VCTS BKN020CB OVC080
FM042130 25005KT P6SM BKN030 BKN080
TEMPO 0421/0501 P6SM -SHRA BKN020 OVC060
PROB30 0421/0424 VRB15G25KT 2SM TSRA BR BKN020 OVC040CB
FM050100 30006KT P6SM BKN040 BKN100
TEMPO 0501/0504 5SM -SHRA BR BKN020 OVC040
FM050400 28006KT P6SM FEW020 BKN070 RMK FCST BASED ON AUTO OBS. NXT FCST BY 050200Z
CZYZ FIR / North America



MET'MAP, your aeronautical weather chart ! - Copyright ORBIFLY December 2007 - Disclaimer

ORBIFLY MET'MAP TEAM :

Programming & Development : Alexandra Zaïnal
Concept & original design : Baudouin d'Aumeries
Assistance for programming : Marc-Olivier Méhu
Technical & hardware support : Manuel Goepfert

Contact : metmap@orbifly.com




SOURCES & CREDITS :

   NOAA       Earth
Advisory